Austin, Texas
Traffic Map
Current Weather Conditions
Austin, Texas
Overcast
Overcast
17°
Feels Like: 17°
Wind Chill: 17° Ceiling: 7000
Heat Index: 17° Visibility: 10mi
Dew Point: 11° Wind: 5mph
Humidity: 67% Direction: 350° (N)
Pressure: 30.09in Gusts: 0mph
Raw Report DataKATT 030051Z AUTO 35004KT 10SM OVC070 17/11 A3009 RMK AO2 SLP185 T01670106
Traffic Incident Summary
Active as of:
Severity:
Category:
InformationThere was an issue retrieving the traffic information for this location. Please try a different location or try again shortly.
Advertisements
Track Severe Weather on mobile